Time;durP1;ratioP1;P1;durP2;ratioP2;P2;SDS_P1;SDS_P2;PMS_P1;PMS_P2;Temp;Humidity;BMP_temperature;BMP_pressure;BME280_temperature;BME280_humidity;BME280_pressure;Samples;Min_cycle;Max_cycle;Signal;HPM_P1;HPM_P2
2023/05/19 00:09:12;;;;;;;7.28;5.13;;;9.20;99.90;;;;;;25967933;22;20011;-50
2023/05/19 00:19:13;;;;;;;7.63;5.68;;;9.10;99.90;;;;;;25967888;22;20015;-58
2023/05/19 00:29:17;;;;;;;8.68;5.70;;;9.00;99.90;;;;;;25967744;22;20000;-51
2023/05/19 00:39:19;;;;;;;9.52;5.60;;;9.00;99.90;;;;;;25966582;22;20011;-58
2023/05/19 00:49:21;;;;;;;7.03;4.80;;;8.90;99.90;;;;;;25966749;22;20015;-52
2023/05/19 00:59:22;;;;;;;6.15;4.57;;;8.90;99.90;;;;;;25966804;22;20012;-50
2023/05/19 01:09:24;;;;;;;7.05;4.53;;;8.80;99.90;;;;;;25938753;22;20026;-49
2023/05/19 01:19:55;;;;;;;6.50;3.80;;;8.70;99.90;;;;;;25965493;22;20370;-58
2023/05/19 01:30:34;;;;;;;5.35;3.60;;;8.70;99.90;;;;;;25980300;22;20011;-59
2023/05/19 01:40:37;;;;;;;5.22;3.42;;;8.60;99.90;;;;;;26006986;22;20071;-50
2023/05/19 01:50:40;;;;;;;5.85;3.55;;;8.50;99.90;;;;;;25964333;22;20008;-50
2023/05/19 02:01:20;;;;;;;6.75;3.10;;;8.50;99.90;;;;;;25964450;22;20014;-57
2023/05/19 02:11:28;;;;;;;7.17;3.30;;;8.40;99.90;;;;;;26006519;22;20061;-50
2023/05/19 02:21:30;;;;;;;6.28;3.33;;;8.30;99.90;;;;;;26006111;22;20026;-50
2023/05/19 02:31:31;;;;;;;6.38;3.75;;;8.20;99.90;;;;;;25963833;22;20007;-48
2023/05/19 02:41:33;;;;;;;7.00;4.10;;;8.00;99.90;;;;;;25938286;22;20000;-48
2023/05/19 02:51:34;;;;;;;6.55;3.90;;;7.80;99.90;;;;;;25944114;22;20011;-47
2023/05/19 03:01:39;;;;;;;7.57;3.80;;;7.70;99.90;;;;;;25943287;22;20517;-58
2023/05/19 03:11:40;;;;;;;5.43;3.30;;;7.70;99.90;;;;;;25970108;22;20004;-48
2023/05/19 03:21:42;;;;;;;6.88;3.10;;;7.70;99.90;;;;;;25969793;22;20015;-58
2023/05/19 03:31:43;;;;;;;4.13;2.75;;;7.80;99.90;;;;;;25969557;22;20008;-51
2023/05/19 03:41:46;;;;;;;5.85;2.40;;;7.80;99.90;;;;;;25942133;22;20450;-55
2023/05/19 03:51:48;;;;;;;6.68;2.38;;;8.00;99.90;;;;;;25940722;22;20016;-51
2023/05/19 04:02:11;;;;;;;3.60;2.58;;;8.20;99.90;;;;;;25963770;22;20015;-48
2023/05/19 04:12:13;;;;;;;4.38;2.25;;;8.10;99.90;;;;;;25940531;22;20003;-57
2023/05/19 04:22:16;;;;;;;3.17;2.10;;;8.30;99.90;;;;;;25968416;22;20385;-49
2023/05/19 04:32:17;;;;;;;5.18;2.47;;;8.40;99.90;;;;;;25966821;22;20003;-58
2023/05/19 04:42:19;;;;;;;4.82;2.50;;;8.40;99.90;;;;;;25941339;22;20000;-52
2023/05/19 04:52:23;;;;;;;5.68;2.05;;;8.50;99.90;;;;;;25965702;22;20053;-58
2023/05/19 05:02:28;;;;;;;4.40;2.25;;;8.70;99.90;;;;;;25938321;22;20015;-51
2023/05/19 05:12:30;;;;;;;4.18;1.80;;;8.90;99.90;;;;;;25937647;22;20004;-47
2023/05/19 05:22:32;;;;;;;3.58;1.90;;;9.10;99.90;;;;;;25937837;22;20015;-52
2023/05/19 05:32:35;;;;;;;2.50;1.60;;;9.40;99.90;;;;;;25911784;22;20007;-50
2023/05/19 05:42:42;;;;;;;2.60;1.63;;;9.70;99.90;;;;;;25936986;22;20408;-51
2023/05/19 05:52:49;;;;;;;2.08;1.45;;;9.70;99.90;;;;;;25937072;22;20320;-51
2023/05/19 06:02:52;;;;;;;1.67;1.20;;;9.90;99.90;;;;;;25978951;22;20442;-51
2023/05/19 06:12:55;;;;;;;2.03;1.40;;;10.10;99.90;;;;;;25935918;22;20004;-50
2023/05/19 06:22:59;;;;;;;2.50;1.60;;;10.00;99.90;;;;;;25944194;22;20447;-57
2023/05/19 06:33:03;;;;;;;2.38;1.77;;;9.90;99.90;;;;;;25944352;22;20381;-57
2023/05/19 06:43:05;;;;;;;3.70;1.70;;;10.00;99.90;;;;;;25943327;22;20026;-51
2023/05/19 06:53:25;;;;;;;;;;;10.10;99.90;;;;;;26013081;22;20003;-52
2023/05/19 07:03:29;;;;;;;4.60;1.67;;;10.10;99.90;;;;;;25970265;22;19938;-57
2023/05/19 07:13:31;;;;;;;2.80;1.45;;;9.90;99.90;;;;;;25943204;22;20427;-57
2023/05/19 07:23:33;;;;;;;2.20;1.27;;;9.80;99.90;;;;;;25942389;22;20081;-51
2023/05/19 07:33:35;;;;;;;3.50;1.40;;;9.70;99.90;;;;;;25968445;22;20007;-57
2023/05/19 07:43:37;;;;;;;3.40;1.35;;;9.60;99.90;;;;;;25967914;22;20014;-52
2023/05/19 07:53:39;;;;;;;1.65;1.30;;;9.80;99.90;;;;;;26010487;22;20414;-50
2023/05/19 08:03:40;;;;;;;3.28;1.40;;;10.00;99.90;;;;;;25967868;22;20004;-49
2023/05/19 08:13:42;;;;;;;2.38;1.38;;;10.00;99.90;;;;;;25967911;22;20007;-52
2023/05/19 08:23:44;;;;;;;2.20;1.50;;;9.90;99.90;;;;;;25967381;22;20004;-56
2023/05/19 08:33:45;;;;;;;2.47;1.48;;;9.80;99.90;;;;;;25966770;22;20003;-49
2023/05/19 08:43:47;;;;;;;5.40;1.80;;;9.70;99.90;;;;;;25968389;22;20065;-51
2023/05/19 08:53:52;;;;;;;2.97;1.65;;;9.80;99.90;;;;;;26008658;22;20008;-58
2023/05/19 09:03:54;;;;;;;1.70;1.15;;;10.30;99.90;;;;;;25965584;22;20069;-58
2023/05/19 09:13:56;;;;;;;3.95;1.65;;;10.50;99.90;;;;;;25964502;22;20436;-58
2023/05/19 09:24:03;;;;;;;4.10;2.05;;;10.60;99.90;;;;;;25964867;22;20069;-50
2023/05/19 09:34:11;;;;;;;2.72;1.92;;;10.30;99.90;;;;;;26006877;22;20008;-49
2023/05/19 09:44:23;;;;;;;2.20;1.70;;;10.50;99.90;;;;;;26002785;22;20012;-58
2023/05/19 09:54:27;;;;;;;4.63;1.67;;;10.40;99.90;;;;;;26014556;22;20427;-45
2023/05/19 10:04:29;;;;;;;3.85;1.80;;;10.10;99.90;;;;;;25949806;22;20011;-58
2023/05/19 10:14:31;;;;;;;4.47;1.95;;;9.90;99.90;;;;;;25978151;22;20011;-47
2023/05/19 10:24:32;;;;;;;2.67;1.85;;;9.70;99.90;;;;;;25977913;22;20433;-57
2023/05/19 10:34:53;;;;;;;3.35;1.73;;;9.90;99.90;;;;;;25977420;22;20320;-48
2023/05/19 10:45:16;;;;;;;3.58;1.92;;;10.00;99.90;;;;;;26013190;22;20326;-50
2023/05/19 10:56:06;;;;;;;4.70;2.00;;;10.30;99.90;;;;;;26020988;22;20011;-50
2023/05/19 11:06:20;;;;;;;2.57;1.90;;;10.50;99.90;;;;;;25968874;22;20011;-48
2023/05/19 11:16:30;;;;;;;2.80;2.05;;;10.40;99.90;;;;;;25969870;22;20019;-49
2023/05/19 11:26:42;;;;;;;2.80;2.17;;;10.40;99.90;;;;;;26013406;22;20501;-49
2023/05/19 11:36:44;;;;;;;2.75;1.90;;;10.40;99.90;;;;;;26011205;22;20053;-58
2023/05/19 11:46:46;;;;;;;3.70;2.10;;;10.70;99.90;;;;;;25971543;22;20019;-47
2023/05/19 11:56:47;;;;;;;2.90;2.20;;;10.70;99.90;;;;;;25968579;22;20008;-51
2023/05/19 12:06:49;;;;;;;4.18;2.30;;;10.70;99.90;;;;;;25967100;22;20652;-49
2023/05/19 12:16:51;;;;;;;3.78;2.00;;;10.20;99.90;;;;;;25967242;22;20003;-48
2023/05/19 12:27:16;;;;;;;2.63;1.90;;;10.00;99.90;;;;;;25967528;22;20025;-58
2023/05/19 12:37:18;;;;;;;4.63;2.05;;;9.90;99.90;;;;;;25999973;22;20007;-51
2023/05/19 12:47:21;;;;;;;3.90;2.10;;;10.00;99.90;;;;;;25966092;22;20016;-51
2023/05/19 12:57:22;;;;;;;2.92;1.90;;;9.80;99.90;;;;;;25965727;22;20007;-50
2023/05/19 13:07:24;;;;;;;3.22;2.10;;;9.70;99.90;;;;;;25964398;22;20346;-50
2023/05/19 13:17:25;;;;;;;3.20;2.13;;;9.50;99.90;;;;;;25964886;22;20435;-58
2023/05/19 13:27:27;;;;;;;4.80;2.40;;;9.10;99.90;;;;;;25965060;22;20012;-50
2023/05/19 13:37:29;;;;;;;4.25;2.38;;;9.00;99.90;;;;;;25964179;22;20331;-59
2023/05/19 13:47:30;;;;;;;6.05;3.42;;;9.10;99.90;;;;;;25964286;22;20012;-49
2023/05/19 13:57:32;;;;;;;5.25;3.38;;;9.10;99.90;;;;;;25964055;22;20465;-48
2023/05/19 14:07:34;;;;;;;5.35;3.72;;;9.10;99.90;;;;;;25963059;22;20042;-50
2023/05/19 14:17:36;;;;;;;5.15;3.53;;;9.10;99.90;;;;;;25963508;22;20004;-45
2023/05/19 14:27:38;;;;;;;6.93;3.80;;;9.10;99.90;;;;;;25963623;22;20030;-59
2023/05/19 14:37:40;;;;;;;5.45;3.75;;;9.00;99.90;;;;;;25965269;22;20000;-50
2023/05/19 14:47:41;;;;;;;6.32;3.70;;;9.10;99.90;;;;;;25970950;22;20023;-59
2023/05/19 14:57:43;;;;;;;6.32;2.97;;;9.00;99.90;;;;;;25970879;22;20011;-60
2023/05/19 15:07:45;;;;;;;5.20;3.45;;;9.00;99.90;;;;;;25971791;22;20662;-59
2023/05/19 15:17:47;;;;;;;3.95;2.70;;;9.00;99.90;;;;;;25969721;22;20007;-45
2023/05/19 15:27:48;;;;;;;3.17;2.70;;;9.30;99.90;;;;;;25969563;22;20050;-59
2023/05/19 15:37:50;;;;;;;3.45;2.13;;;9.40;99.90;;;;;;25969030;22;20015;-47
2023/05/19 15:47:52;;;;;;;2.33;1.73;;;9.40;99.90;;;;;;25965586;22;20023;-57
2023/05/19 15:57:53;;;;;;;3.05;2.00;;;9.10;99.90;;;;;;25965856;22;20073;-59
2023/05/19 16:07:55;;;;;;;5.13;2.75;;;8.90;99.90;;;;;;25966155;22;20003;-48
2023/05/19 16:17:56;;;;;;;3.47;2.50;;;8.80;99.90;;;;;;25967344;22;20004;-59
2023/05/19 16:27:58;;;;;;;3.65;2.50;;;8.70;99.90;;;;;;25967476;22;20030;-58
2023/05/19 16:37:59;;;;;;;2.05;1.60;;;8.70;99.90;;;;;;25965595;22;20037;-59
2023/05/19 16:48:01;;;;;;;2.20;1.90;;;8.60;99.90;;;;;;25965756;22;20085;-46
2023/05/19 16:58:03;;;;;;;3.30;1.40;;;8.50;99.90;;;;;;25967586;22;20073;-60
2023/05/19 17:08:04;;;;;;;2.30;1.60;;;8.40;99.90;;;;;;25965710;22;20008;-45
2023/05/19 17:18:07;;;;;;;2.70;1.58;;;8.30;99.90;;;;;;25965175;22;20774;-48
2023/05/19 17:28:08;;;;;;;2.72;1.90;;;8.20;99.90;;;;;;25912865;22;20000;-58
2023/05/19 17:38:10;;;;;;;2.63;1.70;;;8.10;99.90;;;;;;25963372;22;20007;-48
2023/05/19 17:48:12;;;;;;;2.05;1.52;;;8.00;99.90;;;;;;25964119;22;20089;-58
2023/05/19 17:58:14;;;;;;;2.00;1.40;;;8.00;99.90;;;;;;25964456;22;20011;-58
2023/05/19 18:08:16;;;;;;;2.45;1.80;;;7.90;99.90;;;;;;25964079;22;20435;-58
2023/05/19 18:18:18;;;;;;;3.30;1.80;;;7.80;99.90;;;;;;25972144;22;20467;-46
2023/05/19 18:28:20;;;;;;;2.47;1.70;;;7.80;99.90;;;;;;25972184;22;20004;-49
2023/05/19 18:38:25;;;;;;;3.17;2.25;;;7.80;99.90;;;;;;25970332;22;20011;-49
2023/05/19 18:48:26;;;;;;;3.15;2.17;;;8.00;99.90;;;;;;25971085;22;20108;-46
2023/05/19 18:58:28;;;;;;;3.30;2.80;;;7.90;99.90;;;;;;25970692;22;20378;-58
2023/05/19 19:08:30;;;;;;;3.53;2.63;;;7.90;99.90;;;;;;25970985;22;19999;-46
2023/05/19 19:18:33;;;;;;;3.15;2.50;;;7.90;99.90;;;;;;25942808;22;20007;-57
2023/05/19 19:28:35;;;;;;;3.28;2.60;;;7.80;99.90;;;;;;25967500;22;20007;-48
2023/05/19 19:38:37;;;;;;;4.47;3.00;;;7.80;99.90;;;;;;25967971;22;20008;-50
2023/05/19 19:48:38;;;;;;;4.35;3.47;;;7.80;99.90;;;;;;25968548;22;20007;-57
2023/05/19 19:58:40;;;;;;;5.03;3.47;;;7.80;99.90;;;;;;25968482;22;20508;-49
2023/05/19 20:08:44;;;;;;;3.95;3.28;;;7.80;99.90;;;;;;25967685;22;20298;-49
2023/05/19 20:18:46;;;;;;;5.63;3.55;;;7.90;99.90;;;;;;25967262;22;20077;-59
2023/05/19 20:28:48;;;;;;;4.30;3.55;;;8.00;99.90;;;;;;25967303;22;20004;-49
2023/05/19 20:38:50;;;;;;;4.05;3.40;;;8.00;99.90;;;;;;25967234;22;20010;-47
2023/05/19 20:48:52;;;;;;;5.03;3.40;;;8.00;99.90;;;;;;25966178;22;20338;-47
2023/05/19 20:58:53;;;;;;;5.90;3.47;;;8.00;99.90;;;;;;25966139;22;20443;-47
2023/05/19 21:08:55;;;;;;;6.25;3.58;;;8.00;99.90;;;;;;25967163;22;20003;-50
2023/05/19 21:18:57;;;;;;;5.55;3.65;;;8.00;99.90;;;;;;25965211;22;20004;-59
2023/05/19 21:28:58;;;;;;;5.35;3.67;;;8.00;99.90;;;;;;25964989;22;20447;-58
2023/05/19 21:39:00;;;;;;;5.15;3.53;;;7.90;99.90;;;;;;25964565;22;20100;-46
2023/05/19 21:49:01;;;;;;;3.67;2.90;;;7.80;99.90;;;;;;25963613;22;20008;-57
2023/05/19 21:59:03;;;;;;;3.97;2.80;;;7.90;99.90;;;;;;25963972;22;20004;-58
2023/05/19 22:09:05;;;;;;;3.97;3.30;;;7.90;99.90;;;;;;25963975;22;20070;-47
2023/05/19 22:19:07;;;;;;;6.95;3.63;;;7.80;99.90;;;;;;25963414;22;20004;-45
2023/05/19 22:29:15;;;;;;;5.43;3.65;;;7.70;99.90;;;;;;25963960;22;20019;-58
2023/05/19 22:39:16;;;;;;;5.68;3.40;;;7.70;99.90;;;;;;26005209;22;20505;-46
2023/05/19 22:49:19;;;;;;;4.85;3.28;;;7.60;99.90;;;;;;25962898;22;20016;-58
2023/05/19 22:59:21;;;;;;;5.07;3.63;;;7.70;99.90;;;;;;25965565;22;20010;-59
2023/05/19 23:09:26;;;;;;;6.43;3.53;;;7.80;99.90;;;;;;25970661;22;20008;-59
2023/05/19 23:19:30;;;;;;;5.95;4.10;;;7.70;99.90;;;;;;25969732;22;20012;-59
2023/05/19 23:29:32;;;;;;;5.97;4.10;;;7.70;99.90;;;;;;25969686;22;20004;-56
2023/05/19 23:39:33;;;;;;;7.38;4.45;;;7.70;99.90;;;;;;25969067;22;20007;-49
2023/05/19 23:49:35;;;;;;;6.72;4.47;;;7.70;99.90;;;;;;25968617;22;20011;-57
2023/05/19 23:59:37;;;;;;;7.70;3.75;;;7.70;99.90;;;;;;25968459;22;20442;-47
